Algosoo — VGJD — position and weather

sailwx.info

Track history (hours):
 
Tides and Currents Weather Stations Pressure Air Temp Water Temp Dewpoint Dewpoint Depression Visibility Wind Speed Wind Dir Waves Ship Positions

Algosoo

Last reported at 2015-Aug-02 09:33 UTC. Time now 2015-Aug-02 14:19 UTC.
Position N 42°36' W 079°41'.

Length 223 m; draft 8 m.

Type: Cargo ship. MMSI: 316001799.

Date/timePositionNaut miles runAvg speedWind from/ knotsBaromVisibWave heightAir tempDewpointWater temp
2015-Aug-02 09:33N 42°36' W 079°41'9 9.5
2015-Aug-02 08:33N 42°39' W 079°53'10 9.9
2015-Aug-02 07:34N 42°43' W 080°05'4 3.9
2015-Aug-02 06:33N 42°47' W 080°05'0 0.0
2015-Aug-02 05:33N 42°47' W 080°05'0 0.0
2015-Aug-02 04:33N 42°47' W 080°05'0 0.0
2015-Aug-02 03:33N 42°47' W 080°05'0 0.0
2015-Aug-02 02:33N 42°47' W 080°05'0 0.0
2015-Aug-02 01:33N 42°47' W 080°05'0 0.0
2015-Aug-02 00:33N 42°47' W 080°05'0 0.0
2015-Aug-01 23:33N 42°47' W 080°05'0 0.0
2015-Aug-01 22:33N 42°47' W 080°05'0 0.0
2015-Aug-01 21:33N 42°47' W 080°05'0 0.0
2015-Aug-01 20:33N 42°47' W 080°05'0 0.0
2015-Aug-01 19:33N 42°47' W 080°05'0 0.0
2015-Aug-01 18:33N 42°47' W 080°05'0 0.0
2015-Aug-01 17:33N 42°47' W 080°05'0 0.0
2015-Aug-01 16:33N 42°47' W 080°05'0 0.0
2015-Aug-01 15:33N 42°47' W 080°05'0 0.0
2015-Aug-01 14:33N 42°47' W 080°05'0 0.0
2015-Aug-01 13:33N 42°47' W 080°05'0 0.0
2015-Aug-01 12:33N 42°47' W 080°05'0 0.0
2015-Aug-01 11:33N 42°47' W 080°05'0 0.0
2015-Aug-01 10:33N 42°47' W 080°05'1 0.5
2015-Aug-01 09:33N 42°46' W 080°05'4 4.0
2015-Aug-01 08:33N 42°43' W 080°07'5 4.7
2015-Aug-01 07:33N 42°39' W 080°11'0 0.0
2015-Aug-01 06:33N 42°39' W 080°11'0 0.0
2015-Aug-01 05:33N 42°39' W 080°11'0 0.0
2015-Aug-01 04:33N 42°39' W 080°11'0 0.0
2015-Aug-01 03:33N 42°39' W 080°11'0 0.0
2015-Aug-01 02:33N 42°39' W 080°11'0 0.0
2015-Aug-01 01:33N 42°39' W 080°11'0 0.0
2015-Aug-01 00:32N 42°39' W 080°11'2 2.0
2015-Jul-31 23:33N 42°39' W 080°08'5 4.8
2015-Jul-31 22:33N 42°36' W 080°03'8 7.3
2015-Jul-31 21:25N 42°28' W 080°00'6 7.4
2015-Jul-31 20:33N 42°25' W 080°08'10 7.4
2015-Jul-31 19:14N 42°23' W 080°21'12 1.4
2015-Jul-31 10:32N 42°28' W 080°06'1111.4
2015-Jul-31 09:33N 42°34' W 079°54'1211.6
2015-Jul-31 08:33N 42°40' W 079°40'1211.7
2015-Jul-31 07:33N 42°45' W 079°26'19 4.7
2015-Jul-31 03:33N 43°02' W 079°13'5 5.2
2015-Jul-31 02:34N 43°07' W 079°12'1 1.1
2015-Jul-31 01:34N 43°08' W 079°12'0 0.2
2015-Jul-31 00:33N 43°08' W 079°12'0 0.2
2015-Jul-30 23:34N 43°08' W 079°12'1 1.1
2015-Jul-30 22:34N 43°09' W 079°12'1 1.0
2015-Jul-30 21:34N 43°10' W 079°12'1 1.4
2015-Jul-30 20:34N 43°12' W 079°12'0 0.2
2015-Jul-30 19:34N 43°12' W 079°12'0 0.2
2015-Jul-30 18:34N 43°12' W 079°12'1 1.2
2015-Jul-30 17:33N 43°13' W 079°13'3 3.4
2015-Jul-30 16:33N 43°16' W 079°14'6 5.9
2015-Jul-30 15:34N 43°18' W 079°22'9 8.7
2015-Jul-30 14:34N 43°18' W 079°34'10 0.9
2015-Jul-30 03:33N 43°17' W 079°48'0 0.0
2015-Jul-30 02:34N 43°17' W 079°48'7 3.3
2015-Jul-30 00:33N 43°18' W 079°39'1111.1
2015-Jul-29 23:34N 43°16' W 079°24'8 8.5
2015-Jul-29 22:34N 43°14' W 079°13'1 1.4
2015-Jul-29 21:34N 43°13' W 079°13'1 1.2
2015-Jul-29 20:34N 43°11' W 079°12'2 2.0
2015-Jul-29 19:34N 43°09' W 079°12'1 1.1
2015-Jul-29 18:34N 43°08' W 079°12'0 0.3
2015-Jul-29 17:33N 43°08' W 079°12'0 0.2
2015-Jul-29 16:34N 43°08' W 079°12'1 0.5
2015-Jul-29 15:34N 43°07' W 079°12'1 0.8
2015-Jul-29 14:33N 43°07' W 079°12'3 2.7
2015-Jul-29 13:33N 43°04' W 079°13'14 4.4
2015-Jul-29 10:27N 42°51' W 079°16'19 9.9
2015-Jul-29 08:33N 42°39' W 079°36'1010.2
2015-Jul-29 07:32N 42°33' W 079°47'1010.4
2015-Jul-29 06:33N 42°26' W 079°58'1010.4
2015-Jul-29 05:33N 42°22' W 080°11'  
Track history (hours):
 
Tides and Currents Weather Stations Pressure Air Temp Water Temp Dewpoint Dewpoint Depression Visibility Wind Speed Wind Dir Waves Ship Positions

Algosoo

Last reported at 2015-Aug-02 09:33 UTC. Time now 2015-Aug-02 14:19 UTC.
Position N 42°36' W 079°41'.

Length 223 m; draft 8 m.

Type: Cargo ship. MMSI: 316001799.

Date/timePositionNaut miles runAvg speedWind from/ knotsBaromVisibWave heightAir tempDewpointWater temp
2015-Aug-02 09:33N 42°36' W 079°41'9 9.5
2015-Aug-02 08:33N 42°39' W 079°53'10 9.9
2015-Aug-02 07:34N 42°43' W 080°05'4 3.9
2015-Aug-02 06:33N 42°47' W 080°05'0 0.0
2015-Aug-02 05:33N 42°47' W 080°05'0 0.0
2015-Aug-02 04:33N 42°47' W 080°05'0 0.0
2015-Aug-02 03:33N 42°47' W 080°05'0 0.0
2015-Aug-02 02:33N 42°47' W 080°05'0 0.0
2015-Aug-02 01:33N 42°47' W 080°05'0 0.0
2015-Aug-02 00:33N 42°47' W 080°05'0 0.0
2015-Aug-01 23:33N 42°47' W 080°05'0 0.0
2015-Aug-01 22:33N 42°47' W 080°05'0 0.0
2015-Aug-01 21:33N 42°47' W 080°05'0 0.0
2015-Aug-01 20:33N 42°47' W 080°05'0 0.0
2015-Aug-01 19:33N 42°47' W 080°05'0 0.0
2015-Aug-01 18:33N 42°47' W 080°05'0 0.0
2015-Aug-01 17:33N 42°47' W 080°05'0 0.0
2015-Aug-01 16:33N 42°47' W 080°05'0 0.0
2015-Aug-01 15:33N 42°47' W 080°05'0 0.0
2015-Aug-01 14:33N 42°47' W 080°05'0 0.0
2015-Aug-01 13:33N 42°47' W 080°05'0 0.0
2015-Aug-01 12:33N 42°47' W 080°05'0 0.0
2015-Aug-01 11:33N 42°47' W 080°05'0 0.0
2015-Aug-01 10:33N 42°47' W 080°05'1 0.5
2015-Aug-01 09:33N 42°46' W 080°05'4 4.0
2015-Aug-01 08:33N 42°43' W 080°07'5 4.7
2015-Aug-01 07:33N 42°39' W 080°11'0 0.0
2015-Aug-01 06:33N 42°39' W 080°11'0 0.0
2015-Aug-01 05:33N 42°39' W 080°11'0 0.0
2015-Aug-01 04:33N 42°39' W 080°11'0 0.0
2015-Aug-01 03:33N 42°39' W 080°11'0 0.0
2015-Aug-01 02:33N 42°39' W 080°11'0 0.0
2015-Aug-01 01:33N 42°39' W 080°11'0 0.0
2015-Aug-01 00:32N 42°39' W 080°11'2 2.0
2015-Jul-31 23:33N 42°39' W 080°08'5 4.8
2015-Jul-31 22:33N 42°36' W 080°03'8 7.3
2015-Jul-31 21:25N 42°28' W 080°00'6 7.4
2015-Jul-31 20:33N 42°25' W 080°08'10 7.4
2015-Jul-31 19:14N 42°23' W 080°21'12 1.4
2015-Jul-31 10:32N 42°28' W 080°06'1111.4
2015-Jul-31 09:33N 42°34' W 079°54'1211.6
2015-Jul-31 08:33N 42°40' W 079°40'1211.7
2015-Jul-31 07:33N 42°45' W 079°26'19 4.7
2015-Jul-31 03:33N 43°02' W 079°13'5 5.2
2015-Jul-31 02:34N 43°07' W 079°12'1 1.1
2015-Jul-31 01:34N 43°08' W 079°12'0 0.2
2015-Jul-31 00:33N 43°08' W 079°12'0 0.2
2015-Jul-30 23:34N 43°08' W 079°12'1 1.1
2015-Jul-30 22:34N 43°09' W 079°12'1 1.0
2015-Jul-30 21:34N 43°10' W 079°12'1 1.4
2015-Jul-30 20:34N 43°12' W 079°12'0 0.2
2015-Jul-30 19:34N 43°12' W 079°12'0 0.2
2015-Jul-30 18:34N 43°12' W 079°12'1 1.2
2015-Jul-30 17:33N 43°13' W 079°13'3 3.4
2015-Jul-30 16:33N 43°16' W 079°14'6 5.9
2015-Jul-30 15:34N 43°18' W 079°22'9 8.7
2015-Jul-30 14:34N 43°18' W 079°34'10 0.9
2015-Jul-30 03:33N 43°17' W 079°48'0 0.0
2015-Jul-30 02:34N 43°17' W 079°48'7 3.3
2015-Jul-30 00:33N 43°18' W 079°39'1111.1
2015-Jul-29 23:34N 43°16' W 079°24'8 8.5
2015-Jul-29 22:34N 43°14' W 079°13'1 1.4
2015-Jul-29 21:34N 43°13' W 079°13'1 1.2
2015-Jul-29 20:34N 43°11' W 079°12'2 2.0
2015-Jul-29 19:34N 43°09' W 079°12'1 1.1
2015-Jul-29 18:34N 43°08' W 079°12'0 0.3
2015-Jul-29 17:33N 43°08' W 079°12'0 0.2
2015-Jul-29 16:34N 43°08' W 079°12'1 0.5
2015-Jul-29 15:34N 43°07' W 079°12'1 0.8
2015-Jul-29 14:33N 43°07' W 079°12'3 2.7
2015-Jul-29 13:33N 43°04' W 079°13'14 4.4
2015-Jul-29 10:27N 42°51' W 079°16'19 9.9
2015-Jul-29 08:33N 42°39' W 079°36'1010.2
2015-Jul-29 07:32N 42°33' W 079°47'1010.4
2015-Jul-29 06:33N 42°26' W 079°58'1010.4
2015-Jul-29 05:33N 42°22' W 080°11'  

Dump ship's entire track history